Time;durP1;ratioP1;P1;durP2;ratioP2;P2;SDS_P1;SDS_P2;PMS_P1;PMS_P2;Temp;Humidity;BMP_temperature;BMP_pressure;BME280_temperature;BME280_humidity;BME280_pressure;Samples;Min_cycle;Max_cycle;Signal;HPM_P1;HPM_P2
2021/04/18 00:03:30;;;;;;;4.72;1.10;;;5.70;99.90;;;;;;13021420;22;20018;-48
2021/04/18 00:08:51;;;;;;;7.63;2.40;;;5.60;99.90;;;;;;13023248;22;20388;-48
2021/04/18 00:14:12;;;;;;;4.95;1.58;;;5.60;99.90;;;;;;13023817;22;20445;-48
2021/04/18 00:19:34;;;;;;;3.47;1.70;;;5.60;99.90;;;;;;13020756;22;20046;-48
2021/04/18 00:24:55;;;;;;;3.83;1.77;;;5.50;99.90;;;;;;13040811;22;20022;-48
2021/04/18 00:30:18;;;;;;;5.93;1.42;;;5.40;99.90;;;;;;13022011;22;20026;-48
2021/04/18 00:35:39;;;;;;;3.72;1.45;;;5.30;99.90;;;;;;13022554;22;20019;-48
2021/04/18 00:41:00;;;;;;;10.23;1.42;;;5.30;99.90;;;;;;13022118;22;20025;-48
2021/04/18 00:46:21;;;;;;;4.07;1.55;;;5.20;99.90;;;;;;13044207;22;20015;-48
2021/04/18 00:51:42;;;;;;;8.45;2.17;;;5.20;99.90;;;;;;13021621;22;20031;-48
2021/04/18 00:57:05;;;;;;;2.75;1.30;;;5.10;99.90;;;;;;13020633;22;20019;-48
2021/04/18 01:02:27;;;;;;;4.40;1.90;;;5.20;99.90;;;;;;13021988;22;20011;-47
2021/04/18 01:07:48;;;;;;;3.72;1.83;;;5.10;99.90;;;;;;13021244;22;20015;-47
2021/04/18 01:13:09;;;;;;;6.55;2.25;;;5.10;99.90;;;;;;13022114;22;20117;-47
2021/04/18 01:18:30;;;;;;;6.78;1.98;;;5.00;99.90;;;;;;13021943;22;20068;-48
2021/04/18 01:23:52;;;;;;;2.35;1.23;;;5.00;99.90;;;;;;13020556;22;20019;-47
2021/04/18 01:29:13;;;;;;;3.90;1.90;;;5.00;99.90;;;;;;13023741;22;20054;-47
2021/04/18 01:34:40;;;;;;;5.25;2.00;;;4.80;99.90;;;;;;13039468;22;20024;-47
2021/04/18 01:40:01;;;;;;;4.55;2.05;;;4.80;99.90;;;;;;13024666;22;20015;-48
2021/04/18 01:45:23;;;;;;;4.22;1.52;;;4.70;99.90;;;;;;13025587;22;20435;-47
2021/04/18 01:50:49;;;;;;;5.28;2.03;;;4.70;99.90;;;;;;13026133;22;20023;-47
2021/04/18 01:56:10;;;;;;;6.95;2.92;;;4.70;99.90;;;;;;13028037;22;20386;-47
2021/04/18 02:01:31;;;;;;;3.72;1.92;;;4.60;99.90;;;;;;13020699;22;20098;-47
2021/04/18 02:06:52;;;;;;;10.60;2.15;;;4.60;99.90;;;;;;13025195;22;20081;-47
2021/04/18 02:12:13;;;;;;;3.90;2.00;;;4.50;99.90;;;;;;13030980;22;20324;-47
2021/04/18 02:17:35;;;;;;;5.63;2.03;;;4.50;99.90;;;;;;13029046;22;20019;-47
2021/04/18 02:22:56;;;;;;;4.05;1.80;;;4.40;99.90;;;;;;13027552;22;20101;-47
2021/04/18 02:28:17;;;;;;;3.38;1.92;;;4.30;99.90;;;;;;13025585;22;20469;-47
2021/04/18 02:33:39;;;;;;;5.43;2.47;;;4.30;99.90;;;;;;13011584;22;20493;-85
2021/04/18 02:39:00;;;;;;;3.15;1.73;;;4.20;99.90;;;;;;13085194;22;20030;-84
2021/04/18 02:44:21;;;;;;;6.70;2.10;;;4.20;99.90;;;;;;13087946;22;20021;-85
2021/04/18 02:49:42;;;;;;;4.35;2.45;;;4.30;99.90;;;;;;13086731;22;20023;-84
2021/04/18 02:55:03;;;;;;;5.97;2.33;;;4.20;99.90;;;;;;13064748;22;20120;-85
2021/04/18 03:00:24;;;;;;;4.68;2.53;;;4.20;99.90;;;;;;13064019;22;20015;-84
2021/04/18 03:05:45;;;;;;;12.18;3.10;;;4.10;99.90;;;;;;13065583;22;20014;-84
2021/04/18 03:11:06;;;;;;;4.68;2.22;;;4.10;99.90;;;;;;13087168;22;20035;-84
2021/04/18 03:16:27;;;;;;;4.00;2.00;;;4.10;99.90;;;;;;13088045;22;20011;-84
2021/04/18 03:21:48;;;;;;;9.55;3.03;;;4.10;99.90;;;;;;13087970;22;20015;-84
2021/04/18 03:27:09;;;;;;;5.63;2.55;;;4.00;99.90;;;;;;13067227;22;20064;-84
2021/04/18 03:32:30;;;;;;;12.10;2.85;;;3.90;99.90;;;;;;13087859;22;20034;-84
2021/04/18 03:37:51;;;;;;;7.82;2.28;;;3.90;99.90;;;;;;13084772;22;20458;-84
2021/04/18 03:43:12;;;;;;;4.78;2.20;;;3.90;99.90;;;;;;13087261;22;20047;-84
2021/04/18 03:48:33;;;;;;;4.18;1.98;;;3.90;99.90;;;;;;13085932;22;20019;-83
2021/04/18 03:53:54;;;;;;;9.05;3.60;;;3.70;99.90;;;;;;13087878;22;20056;-84
2021/04/18 03:59:15;;;;;;;17.80;3.28;;;3.70;99.90;;;;;;13107586;22;20046;-84
2021/04/18 04:04:36;;;;;;;6.95;2.53;;;3.60;99.90;;;;;;13107255;22;20017;-84
2021/04/18 04:09:57;;;;;;;4.93;2.13;;;3.80;99.90;;;;;;13102322;22;20019;-84
2021/04/18 04:15:19;;;;;;;5.90;3.17;;;3.70;99.90;;;;;;13087229;22;20014;-84
2021/04/18 04:20:39;;;;;;;4.40;2.28;;;3.80;99.90;;;;;;13107606;22;20034;-85
2021/04/18 04:26:03;;;;;;;4.07;2.50;;;3.70;99.90;;;;;;13125835;22;20003;-84
2021/04/18 04:31:24;;;;;;;4.80;2.05;;;3.60;99.90;;;;;;13096832;22;20457;-85
2021/04/18 04:36:44;;;;;;;6.65;2.30;;;3.60;99.90;;;;;;13074299;22;20023;-84
2021/04/18 04:42:06;;;;;;;5.07;2.83;;;3.40;99.90;;;;;;13075737;22;20521;-84
2021/04/18 04:47:27;;;;;;;4.53;2.58;;;3.50;99.90;;;;;;13074253;22;20040;-84
2021/04/18 04:52:48;;;;;;;3.03;1.67;;;3.50;99.90;;;;;;13097217;22;20037;-84
2021/04/18 04:58:09;;;;;;;4.45;2.42;;;3.50;99.90;;;;;;13096921;22;20065;-85
2021/04/18 05:03:30;;;;;;;4.28;2.72;;;3.60;99.90;;;;;;13075083;22;20025;-84
2021/04/18 05:08:51;;;;;;;6.10;2.53;;;3.60;99.90;;;;;;13097973;22;20018;-84
2021/04/18 05:14:12;;;;;;;3.15;1.92;;;3.60;99.90;;;;;;13073868;22;20089;-84
2021/04/18 05:19:33;;;;;;;5.32;2.85;;;3.70;99.90;;;;;;13073077;22;20373;-85
2021/04/18 05:24:54;;;;;;;3.22;1.83;;;3.70;99.90;;;;;;13076484;22;20018;-85
2021/04/18 05:30:15;;;;;;;4.78;2.50;;;3.80;99.90;;;;;;13078038;22;20065;-84
2021/04/18 05:35:36;;;;;;;6.35;3.65;;;4.00;99.90;;;;;;13076469;22;20023;-84
2021/04/18 05:40:57;;;;;;;7.32;4.13;;;4.20;99.90;;;;;;13098160;22;20392;-86
2021/04/18 05:46:18;;;;;;;9.57;4.30;;;4.40;99.90;;;;;;13079778;22;20019;-84
2021/04/18 05:51:39;;;;;;;8.30;3.53;;;4.50;99.90;;;;;;13060775;22;20394;-85
2021/04/18 05:57:00;;;;;;;7.50;3.05;;;4.70;99.90;;;;;;13102388;22;20021;-83
2021/04/18 06:02:21;;;;;;;5.60;2.65;;;4.90;99.90;;;;;;13088466;22;20405;-85
2021/04/18 06:07:42;;;;;;;5.60;2.63;;;5.00;99.90;;;;;;13087886;22;20649;-85
2021/04/18 06:13:03;;;;;;;5.03;2.70;;;5.10;99.90;;;;;;13069644;22;20017;-85
2021/04/18 06:18:24;;;;;;;7.22;2.90;;;5.30;99.90;;;;;;13071643;22;20081;-85
2021/04/18 06:23:45;;;;;;;7.20;3.75;;;5.40;99.90;;;;;;13099309;22;20129;-84
2021/04/18 06:29:06;;;;;;;5.57;3.40;;;5.50;99.90;;;;;;13063506;22;20015;-84
2021/04/18 06:34:27;;;;;;;8.32;2.58;;;5.50;99.90;;;;;;13068623;22;20446;-85
2021/04/18 06:39:47;;;;;;;7.90;3.05;;;5.60;99.90;;;;;;13075110;22;20015;-85
2021/04/18 06:45:10;;;;;;;5.45;2.55;;;5.80;99.90;;;;;;13072111;22;20021;-85
2021/04/18 06:50:32;;;;;;;5.57;2.78;;;5.90;99.90;;;;;;13080218;22;20096;-84
2021/04/18 06:55:53;;;;;;;5.60;3.05;;;6.10;99.90;;;;;;13071897;22;20037;-83
2021/04/18 07:01:14;;;;;;;6.38;2.78;;;6.30;99.90;;;;;;13093957;22;20286;-83
2021/04/18 07:06:40;;;;;;;4.25;2.60;;;6.50;99.90;;;;;;13093234;22;20018;-88
2021/04/18 07:12:03;;;;;;;8.88;3.33;;;6.60;99.90;;;;;;13078505;22;20314;-84
2021/04/18 07:17:24;;;;;;;7.10;3.40;;;6.80;99.90;;;;;;13054796;22;20021;-85
2021/04/18 07:22:46;;;;;;;9.18;3.30;;;7.00;99.90;;;;;;13074801;22;20409;-85
2021/04/18 07:28:21;;;;;;;6.80;2.90;;;7.10;99.90;;;;;;13074253;22;20015;-83
2021/04/18 07:34:05;;;;;;;7.63;3.55;;;7.30;99.90;;;;;;13096520;22;20026;-84
2021/04/18 07:39:47;;;;;;;4.57;2.05;;;7.60;99.90;;;;;;13099249;22;20022;-85
2021/04/18 07:45:08;;;;;;;6.28;2.70;;;7.80;99.90;;;;;;13099980;22;20032;-85
2021/04/18 07:50:30;;;;;;;3.72;2.10;;;8.00;99.90;;;;;;13098645;22;20580;-84
2021/04/18 07:55:51;;;;;;;9.43;2.50;;;8.20;99.90;;;;;;13077221;22;20018;-84
2021/04/18 08:01:13;;;;;;;10.18;1.88;;;8.30;99.90;;;;;;13076695;22;20015;-83
2021/04/18 08:06:33;;;;;;;4.30;2.10;;;8.70;99.90;;;;;;13097585;22;20067;-83
2021/04/18 08:12:24;;;;;;;4.75;2.13;;;8.80;99.90;;;;;;13099185;22;20042;-84
2021/04/18 08:18:06;;;;;;;4.85;1.98;;;9.00;99.90;;;;;;13066483;22;20026;-84
2021/04/18 08:23:45;;;;;;;4.97;1.38;;;9.30;99.90;;;;;;13103793;22;20410;-84
2021/04/18 08:29:08;;;;;;;5.97;2.13;;;9.50;99.90;;;;;;13078014;22;20409;-83
2021/04/18 08:34:36;;;;;;;6.40;2.13;;;9.60;99.90;;;;;;13064713;22;20023;-84
2021/04/18 08:40:05;;;;;;;5.55;2.35;;;9.70;99.90;;;;;;13099637;22;20022;-83
2021/04/18 08:45:49;;;;;;;5.65;2.50;;;9.80;99.90;;;;;;13101654;22;20011;-84
2021/04/18 08:51:10;;;;;;;3.03;1.45;;;10.00;99.90;;;;;;13093949;22;20006;-84
2021/04/18 08:56:48;;;;;;;4.85;2.00;;;10.20;99.90;;;;;;13074843;22;20015;-84
2021/04/18 09:02:11;;;;;;;3.92;2.10;;;10.30;99.90;;;;;;13098479;22;20026;-84
2021/04/18 09:07:36;;;;;;;4.32;1.90;;;10.70;99.90;;;;;;13077846;22;20350;-84
2021/04/18 09:12:57;;;;;;;5.63;2.42;;;10.90;99.90;;;;;;13068912;22;20010;-84
2021/04/18 09:18:22;;;;;;;7.05;2.35;;;11.20;99.90;;;;;;13067930;22;20447;-85
2021/04/18 09:24:01;;;;;;;6.07;2.45;;;11.50;99.90;;;;;;13073362;22;20441;-85
2021/04/18 09:29:23;;;;;;;4.15;1.83;;;11.90;99.90;;;;;;13094827;22;20098;-84
2021/04/18 09:34:46;;;;;;;4.15;1.70;;;12.20;99.90;;;;;;13060487;22;20029;-84
2021/04/18 09:40:10;;;;;;;7.00;1.80;;;12.60;99.90;;;;;;13076803;22;20101;-84
2021/04/18 09:45:33;;;;;;;4.50;2.15;;;12.90;99.90;;;;;;13094468;22;20011;-84
2021/04/18 09:51:02;;;;;;;9.23;2.72;;;12.90;99.90;;;;;;13074164;22;20023;-84
2021/04/18 09:56:24;;;;;;;5.63;1.30;;;13.10;99.90;;;;;;13074583;22;20011;-85
2021/04/18 10:01:46;;;;;;;3.33;1.48;;;13.60;99.90;;;;;;13069716;22;20099;-83
2021/04/18 10:07:08;;;;;;;3.03;1.60;;;13.80;99.90;;;;;;13076256;22;20011;-83
2021/04/18 10:12:45;;;;;;;4.22;1.60;;;13.90;99.90;;;;;;13113866;22;20025;-84
2021/04/18 10:18:12;;;;;;;3.28;1.27;;;14.10;99.90;;;;;;13076995;22;20018;-84
2021/04/18 10:23:32;;;;;;;3.40;1.42;;;14.60;99.90;;;;;;13073130;22;20030;-84
2021/04/18 10:28:55;;;;;;;3.17;0.95;;;14.60;99.90;;;;;;13073496;22;20337;-84
2021/04/18 10:34:16;;;;;;;4.47;1.80;;;15.30;99.90;;;;;;13096607;22;20129;-85
2021/04/18 10:39:37;;;;;;;11.10;1.90;;;15.70;99.90;;;;;;13073056;22;20023;-84
2021/04/18 10:44:58;;;;;;;8.43;1.50;;;16.00;99.90;;;;;;13096689;22;20289;-84
2021/04/18 10:50:19;;;;;;;3.15;1.35;;;16.30;99.90;;;;;;13068395;22;20649;-84
2021/04/18 10:55:40;;;;;;;2.28;0.80;;;16.70;97.20;;;;;;13071912;22;20446;-81
2021/04/18 11:01:01;;;;;;;2.88;0.80;;;16.50;95.50;;;;;;13072293;22;20011;-83
2021/04/18 11:06:23;;;;;;;2.17;0.85;;;16.50;95.10;;;;;;13071102;22;20057;-81
2021/04/18 11:11:44;;;;;;;2.30;0.88;;;16.90;94.70;;;;;;13070516;22;20454;-83
2021/04/18 11:17:05;;;;;;;2.10;0.80;;;17.70;90.90;;;;;;13045032;22;20375;-82
2021/04/18 11:22:26;;;;;;;2.90;1.23;;;17.80;88.80;;;;;;13068065;22;20438;-82
2021/04/18 11:27:47;;;;;;;0.95;0.30;;;17.90;73.70;;;;;;13065643;22;20539;-84
2021/04/18 11:33:08;;;;;;;3.38;0.57;;;18.30;66.80;;;;;;13062871;22;20432;-85
2021/04/18 11:38:29;;;;;;;2.53;1.35;;;18.20;68.80;;;;;;13059044;22;20563;-83
2021/04/18 11:43:50;;;;;;;1.50;0.40;;;19.00;68.10;;;;;;13073308;22;20430;-82
2021/04/18 11:49:12;;;;;;;1.63;0.50;;;18.90;61.70;;;;;;13084416;22;20015;-82
2021/04/18 11:54:33;;;;;;;2.38;0.98;;;19.50;61.10;;;;;;13063960;22;20310;-82
2021/04/18 11:59:54;;;;;;;2.15;1.20;;;19.90;60.40;;;;;;13062134;22;20018;-83
2021/04/18 12:05:15;;;;;;;2.25;0.85;;;20.60;54.90;;;;;;13088802;22;20015;-83
2021/04/18 12:10:36;;;;;;;2.10;1.00;;;20.30;58.50;;;;;;13090350;22;20014;-83
2021/04/18 12:15:57;;;;;;;3.97;1.15;;;20.60;61.40;;;;;;13060929;22;20281;-83
2021/04/18 12:21:18;;;;;;;3.20;1.23;;;20.70;62.80;;;;;;13096892;22;20072;-82
2021/04/18 12:26:39;;;;;;;3.45;1.73;;;21.60;63.90;;;;;;13065518;22;20011;-83
2021/04/18 12:32:00;;;;;;;2.53;1.38;;;22.20;62.20;;;;;;13087475;22;20209;-83
2021/04/18 12:37:21;;;;;;;3.22;1.17;;;21.90;63.80;;;;;;13092038;22;20027;-82
2021/04/18 12:42:42;;;;;;;3.70;1.25;;;21.80;65.50;;;;;;13068659;22;20056;-82
2021/04/18 12:48:04;;;;;;;3.88;1.35;;;22.30;63.50;;;;;;13067232;22;20030;-82
2021/04/18 12:53:25;;;;;;;2.78;1.08;;;22.20;59.50;;;;;;13090190;22;20085;-82
2021/04/18 12:58:46;;;;;;;2.53;1.40;;;22.50;59.90;;;;;;13087825;22;20042;-84
2021/04/18 13:04:07;;;;;;;2.45;1.10;;;23.10;57.70;;;;;;13069123;22;20027;-83
2021/04/18 13:09:28;;;;;;;2.80;1.15;;;22.90;55.70;;;;;;13101536;22;20068;-83
2021/04/18 13:14:49;;;;;;;3.70;1.10;;;22.10;58.10;;;;;;13077331;22;20461;-83
2021/04/18 13:20:11;;;;;;;4.95;1.48;;;22.20;56.50;;;;;;13065916;22;20021;-83
2021/04/18 13:25:32;;;;;;;2.88;1.15;;;22.10;58.90;;;;;;13064267;22;20011;-83
2021/04/18 13:30:53;;;;;;;2.85;1.10;;;23.20;54.70;;;;;;13088569;22;20029;-83
2021/04/18 13:36:14;;;;;;;1.73;0.70;;;22.80;53.50;;;;;;13070467;22;20041;-84
2021/04/18 13:41:35;;;;;;;2.25;0.85;;;22.10;53.50;;;;;;13096512;22;20015;-83
2021/04/18 13:46:56;;;;;;;2.78;1.08;;;22.80;51.30;;;;;;13071560;22;20067;-83
2021/04/18 13:52:17;;;;;;;3.42;0.90;;;22.50;50.40;;;;;;13094848;22;20021;-83
2021/04/18 13:57:39;;;;;;;4.18;2.25;;;22.10;49.10;;;;;;13091495;22;20034;-83
2021/04/18 14:03:00;;;;;;;3.33;1.33;;;20.70;51.10;;;;;;13070779;22;20092;-82
2021/04/18 14:08:21;;;;;;;2.80;0.98;;;20.00;53.60;;;;;;13076221;22;20490;-82
2021/04/18 14:13:42;;;;;;;4.75;1.45;;;20.10;54.00;;;;;;13087047;22;20354;-83
2021/04/18 14:19:03;;;;;;;6.95;2.05;;;19.20;57.30;;;;;;13087938;22;20082;-83
2021/04/18 14:24:25;;;;;;;4.40;1.50;;;18.60;57.70;;;;;;13108220;22;20079;-83
2021/04/18 14:29:46;;;;;;;2.63;1.15;;;18.10;61.40;;;;;;13087547;22;20098;-83
2021/04/18 14:35:08;;;;;;;3.00;1.25;;;17.60;64.70;;;;;;13110542;22;20502;-83
2021/04/18 14:40:29;;;;;;;5.22;1.90;;;17.30;68.80;;;;;;13117035;22;20044;-83
2021/04/18 14:45:51;;;;;;;4.85;1.55;;;17.10;72.60;;;;;;13091554;22;20021;-83
2021/04/18 14:51:12;;;;;;;3.85;1.80;;;16.80;81.80;;;;;;13114160;22;20084;-83
2021/04/18 14:56:33;;;;;;;5.32;1.92;;;16.80;83.60;;;;;;13110215;22;20139;-83
2021/04/18 15:01:54;;;;;;;4.63;2.28;;;16.70;88.10;;;;;;13088721;22;20060;-82
2021/04/18 15:07:15;;;;;;;6.45;1.80;;;16.60;90.80;;;;;;13110878;22;20025;-83
2021/04/18 15:12:36;;;;;;;4.28;1.70;;;16.50;88.10;;;;;;13089402;22;20104;-83
2021/04/18 15:17:57;;;;;;;2.65;1.50;;;16.20;91.30;;;;;;13089576;22;20381;-83
2021/04/18 15:23:18;;;;;;;6.68;2.10;;;16.50;93.50;;;;;;13088582;22;20319;-83
2021/04/18 15:28:42;;;;;;;4.75;1.70;;;16.30;96.10;;;;;;13106153;22;20018;-84
2021/04/18 15:34:04;;;;;;;7.40;2.60;;;16.20;95.90;;;;;;13085055;22;20018;-82
2021/04/18 15:39:24;;;;;;;3.42;1.50;;;16.10;99.90;;;;;;13110133;22;20657;-83
2021/04/18 15:44:46;;;;;;;4.00;1.35;;;15.70;99.90;;;;;;13107731;22;20019;-83
2021/04/18 15:50:08;;;;;;;3.25;1.80;;;15.60;99.90;;;;;;13088078;22;20463;-83
2021/04/18 15:55:29;;;;;;;7.22;1.50;;;15.50;99.90;;;;;;13087023;22;20461;-83
2021/04/18 16:00:50;;;;;;;3.78;1.77;;;15.50;99.90;;;;;;13104972;22;20446;-82
2021/04/18 16:06:11;;;;;;;4.95;1.50;;;15.40;99.90;;;;;;13090218;22;20322;-83
2021/04/18 16:11:33;;;;;;;4.93;1.70;;;15.50;99.90;;;;;;13089385;22;20118;-82
2021/04/18 16:16:54;;;;;;;3.05;1.23;;;15.50;99.90;;;;;;13088459;22;20053;-84
2021/04/18 16:22:15;;;;;;;4.15;1.30;;;15.60;99.90;;;;;;13109740;22;20014;-83
2021/04/18 16:27:36;;;;;;;3.88;1.38;;;15.50;99.90;;;;;;13085814;22;20015;-83
2021/04/18 16:33:01;;;;;;;4.75;1.45;;;15.30;99.90;;;;;;13087513;22;20382;-82
2021/04/18 16:38:21;;;;;;;6.35;2.53;;;15.20;99.90;;;;;;13106837;22;20019;-83
2021/04/18 16:43:43;;;;;;;5.65;3.15;;;15.10;99.90;;;;;;13151766;22;20022;-82
2021/04/18 16:49:05;;;;;;;8.80;3.67;;;14.90;99.90;;;;;;13083036;22;20022;-82
2021/04/18 16:54:26;;;;;;;3.15;1.58;;;14.90;99.90;;;;;;13103921;22;20090;-82
2021/04/18 16:59:48;;;;;;;5.43;2.72;;;14.70;99.90;;;;;;13102234;22;20011;-82
2021/04/18 17:05:09;;;;;;;5.13;1.98;;;14.70;99.90;;;;;;13081157;22;20468;-83
2021/04/18 17:10:31;;;;;;;5.32;1.83;;;14.50;99.90;;;;;;13099366;22;20060;-83
2021/04/18 17:15:51;;;;;;;9.10;3.22;;;14.40;99.90;;;;;;13079092;22;20021;-82
2021/04/18 17:21:12;;;;;;;5.90;2.55;;;14.20;99.90;;;;;;13077855;22;20014;-83
2021/04/18 17:26:33;;;;;;;7.80;3.40;;;14.00;99.90;;;;;;13099911;22;20099;-83
2021/04/18 17:31:54;;;;;;;7.30;3.20;;;14.00;99.90;;;;;;13097226;22;20011;-83
2021/04/18 17:37:16;;;;;;;7.55;2.65;;;13.80;99.90;;;;;;13078287;22;20018;-82
2021/04/18 17:42:39;;;;;;;14.60;6.47;;;13.70;99.90;;;;;;13083649;22;20061;-82
2021/04/18 17:48:00;;;;;;;5.25;2.03;;;13.80;99.90;;;;;;13105757;22;20433;-82
2021/04/18 17:53:21;;;;;;;5.90;2.58;;;13.60;99.90;;;;;;13085480;22;20018;-82
2021/04/18 17:58:42;;;;;;;3.95;1.83;;;13.40;99.90;;;;;;13107801;22;20015;-82
2021/04/18 18:04:03;;;;;;;3.83;1.58;;;13.30;99.90;;;;;;13089410;22;20118;-82
2021/04/18 18:09:24;;;;;;;3.78;1.77;;;13.30;99.90;;;;;;13069716;22;20010;-82
2021/04/18 18:14:45;;;;;;;5.30;1.70;;;13.30;99.90;;;;;;13085521;22;20015;-82
2021/04/18 18:20:07;;;;;;;3.00;1.02;;;13.30;99.90;;;;;;13081592;22;20091;-82
2021/04/18 18:25:28;;;;;;;4.22;1.63;;;13.10;99.90;;;;;;13107365;22;20018;-83
2021/04/18 18:30:50;;;;;;;5.68;2.47;;;13.00;99.90;;;;;;13087199;22;20014;-83
2021/04/18 18:36:10;;;;;;;4.35;1.73;;;13.00;99.90;;;;;;13113910;22;20022;-82
2021/04/18 18:41:32;;;;;;;6.88;1.77;;;12.90;99.90;;;;;;13097961;22;20010;-83
2021/04/18 18:46:53;;;;;;;4.43;1.92;;;12.90;99.90;;;;;;13104554;22;20045;-83
2021/04/18 18:52:16;;;;;;;8.80;2.78;;;12.80;99.90;;;;;;13095986;22;20456;-82
2021/04/18 18:57:37;;;;;;;9.18;3.20;;;12.70;99.90;;;;;;13094697;22;20271;-82
2021/04/18 19:02:58;;;;;;;4.18;1.77;;;12.70;99.90;;;;;;13093036;22;20015;-82
2021/04/18 19:08:19;;;;;;;4.18;1.52;;;12.40;99.90;;;;;;13096774;22;20184;-83
2021/04/18 19:13:40;;;;;;;9.32;2.53;;;12.40;99.90;;;;;;13093762;22;20011;-83
2021/04/18 19:19:00;;;;;;;3.72;1.33;;;12.20;99.90;;;;;;13093925;22;20107;-83
2021/04/18 19:24:21;;;;;;;3.33;1.52;;;12.10;99.90;;;;;;13094466;22;20015;-83
2021/04/18 19:29:42;;;;;;;3.60;1.13;;;11.90;99.90;;;;;;13088447;22;20015;-83
2021/04/18 19:35:05;;;;;;;7.18;1.13;;;11.70;99.90;;;;;;13087057;22;20102;-83
2021/04/18 19:40:27;;;;;;;3.78;0.73;;;11.60;99.90;;;;;;13077373;22;20015;-83
2021/04/18 19:45:48;;;;;;;3.38;0.85;;;11.40;99.90;;;;;;13077662;22;20079;-84
2021/04/18 19:51:09;;;;;;;3.58;1.23;;;11.30;99.90;;;;;;13091912;22;20053;-84
2021/04/18 19:56:30;;;;;;;2.95;0.75;;;11.40;99.90;;;;;;13092068;22;20007;-85
2021/04/18 20:01:51;;;;;;;1.85;0.60;;;11.30;99.90;;;;;;13123730;22;20014;-85
2021/04/18 20:07:12;;;;;;;2.60;1.20;;;11.10;99.90;;;;;;13095631;22;20023;-85
2021/04/18 20:12:33;;;;;;;3.97;1.05;;;11.10;99.90;;;;;;13112576;22;20383;-85
2021/04/18 20:17:54;;;;;;;5.18;1.88;;;11.00;99.90;;;;;;13112252;22;20172;-85
2021/04/18 20:23:15;;;;;;;4.18;2.13;;;10.90;99.90;;;;;;13113773;22;20076;-85
2021/04/18 20:28:36;;;;;;;2.97;0.98;;;10.80;99.90;;;;;;13098049;22;20062;-85
2021/04/18 20:33:57;;;;;;;2.28;0.82;;;10.80;99.90;;;;;;13123599;22;20075;-85
2021/04/18 20:39:18;;;;;;;2.50;1.27;;;10.70;99.90;;;;;;13100227;22;20018;-84
2021/04/18 20:44:41;;;;;;;3.22;1.05;;;10.60;99.90;;;;;;13123446;22;20041;-85
2021/04/18 20:50:04;;;;;;;1.52;0.73;;;10.60;99.90;;;;;;13127629;22;20018;-85
2021/04/18 20:55:25;;;;;;;4.43;1.40;;;10.50;99.90;;;;;;13125580;22;20018;-85
2021/04/18 21:00:46;;;;;;;4.82;1.98;;;10.40;99.90;;;;;;13101444;22;20019;-85
2021/04/18 21:06:07;;;;;;;4.15;1.55;;;10.30;99.90;;;;;;13122443;22;20019;-85
2021/04/18 21:11:28;;;;;;;3.38;1.42;;;10.30;99.90;;;;;;13098157;22;20074;-84
2021/04/18 21:16:49;;;;;;;2.67;1.27;;;10.20;99.90;;;;;;13100051;22;20139;-85
2021/04/18 21:22:10;;;;;;;3.08;1.25;;;10.20;99.90;;;;;;13120939;22;20015;-85
2021/04/18 21:27:32;;;;;;;4.55;1.48;;;10.10;99.90;;;;;;13098402;22;20030;-85
2021/04/18 21:32:53;;;;;;;3.30;1.30;;;10.00;99.90;;;;;;13100570;22;20038;-85
2021/04/18 21:38:14;;;;;;;4.68;1.52;;;9.90;99.90;;;;;;13096912;22;20030;-85
2021/04/18 21:43:43;;;;;;;3.25;1.40;;;9.90;99.90;;;;;;13094908;22;20015;-85
2021/04/18 21:49:04;;;;;;;6.47;1.80;;;9.80;99.90;;;;;;13096850;22;20101;-85
2021/04/18 21:54:26;;;;;;;2.22;1.15;;;9.80;99.90;;;;;;13097867;22;20011;-85
2021/04/18 21:59:47;;;;;;;2.90;1.40;;;9.60;99.90;;;;;;13118901;22;20014;-85
2021/04/18 22:05:09;;;;;;;3.78;1.50;;;9.50;99.90;;;;;;13098677;22;20076;-85
2021/04/18 22:10:30;;;;;;;2.78;0.95;;;9.50;99.90;;;;;;13101261;22;20029;-85
2021/04/18 22:15:51;;;;;;;3.85;1.70;;;9.50;99.90;;;;;;13099408;22;20022;-85
2021/04/18 22:21:13;;;;;;;4.32;1.63;;;9.40;99.90;;;;;;13118664;22;20067;-85
2021/04/18 22:26:34;;;;;;;2.97;1.40;;;9.40;99.90;;;;;;13098206;22;20118;-85
2021/04/18 22:31:54;;;;;;;3.83;1.38;;;9.20;99.90;;;;;;13097810;22;20065;-85
2021/04/18 22:37:16;;;;;;;3.30;1.20;;;9.20;99.90;;;;;;13097284;22;20030;-85
2021/04/18 22:42:37;;;;;;;3.45;1.23;;;9.20;99.90;;;;;;13118084;22;20022;-84
2021/04/18 22:47:58;;;;;;;2.38;1.10;;;9.20;99.90;;;;;;13095343;22;20043;-84
2021/04/18 22:53:19;;;;;;;2.70;0.98;;;9.10;99.90;;;;;;13096404;22;20023;-85
2021/04/18 22:58:40;;;;;;;4.22;1.77;;;9.10;99.90;;;;;;13094881;22;20019;-85
2021/04/18 23:04:01;;;;;;;4.88;1.27;;;9.00;99.90;;;;;;13121257;22;20034;-84
2021/04/18 23:09:22;;;;;;;6.75;1.42;;;9.00;99.90;;;;;;13100267;22;20011;-84
2021/04/18 23:14:42;;;;;;;3.42;1.77;;;8.90;99.90;;;;;;13098361;22;20089;-84
2021/04/18 23:20:06;;;;;;;6.03;1.50;;;8.80;99.90;;;;;;13098189;22;20023;-84
2021/04/18 23:25:27;;;;;;;4.18;1.30;;;8.80;99.90;;;;;;13121562;22;20045;-84
2021/04/18 23:30:48;;;;;;;4.78;1.90;;;8.80;99.90;;;;;;13098124;22;20011;-85
2021/04/18 23:36:09;;;;;;;3.78;1.40;;;8.70;99.90;;;;;;13106567;22;20103;-85
2021/04/18 23:41:30;;;;;;;3.95;1.20;;;8.60;99.90;;;;;;13082442;22;20105;-85
2021/04/18 23:46:51;;;;;;;3.47;1.88;;;8.60;99.90;;;;;;13082051;22;20015;-85
2021/04/18 23:52:12;;;;;;;3.72;2.40;;;8.50;99.90;;;;;;13081388;22;20341;-85
2021/04/18 23:57:33;;;;;;;3.40;1.60;;;8.40;99.90;;;;;;13080746;22;20038;-85
